sensor_id;sensor_type;location;lat;lon;timestamp;P1;durP1;ratioP1;P2;durP2;ratioP2
7587;SDS011;3835;48.850;8.938;2022-08-01T00:01:30;10.93;;;10.47;;
7587;SDS011;3835;48.850;8.938;2022-08-01T00:03:58;11.53;;;11.13;;
7587;SDS011;3835;48.850;8.938;2022-08-01T00:06:26;11.50;;;11.00;;
7587;SDS011;3835;48.850;8.938;2022-08-01T00:08:53;12.50;;;12.00;;
7587;SDS011;3835;48.850;8.938;2022-08-01T00:11:20;10.80;;;10.40;;
7587;SDS011;3835;48.850;8.938;2022-08-01T00:13:47;13.03;;;12.53;;
7587;SDS011;3835;48.850;8.938;2022-08-01T00:16:14;12.47;;;11.97;;
7587;SDS011;3835;48.850;8.938;2022-08-01T00:18:41;14.53;;;13.93;;
7587;SDS011;3835;48.850;8.938;2022-08-01T00:21:09;12.73;;;12.13;;
7587;SDS011;3835;48.850;8.938;2022-08-01T00:23:36;12.83;;;12.23;;
7587;SDS011;3835;48.850;8.938;2022-08-01T00:26:03;12.00;;;11.50;;
7587;SDS011;3835;48.850;8.938;2022-08-01T00:28:30;10.93;;;10.53;;
7587;SDS011;3835;48.850;8.938;2022-08-01T00:30:57;12.77;;;12.17;;
7587;SDS011;3835;48.850;8.938;2022-08-01T00:33:24;11.67;;;11.17;;
7587;SDS011;3835;48.850;8.938;2022-08-01T00:35:51;12.67;;;12.17;;
7587;SDS011;3835;48.850;8.938;2022-08-01T00:38:19;12.07;;;11.57;;
7587;SDS011;3835;48.850;8.938;2022-08-01T00:40:46;12.97;;;12.37;;
7587;SDS011;3835;48.850;8.938;2022-08-01T00:43:13;11.93;;;11.43;;
7587;SDS011;3835;48.850;8.938;2022-08-01T00:45:40;12.13;;;11.63;;
7587;SDS011;3835;48.850;8.938;2022-08-01T00:48:07;12.23;;;11.73;;
7587;SDS011;3835;48.850;8.938;2022-08-01T00:50:34;13.40;;;12.83;;
7587;SDS011;3835;48.850;8.938;2022-08-01T00:53:02;16.13;;;15.47;;
7587;SDS011;3835;48.850;8.938;2022-08-01T00:55:30;13.70;;;13.20;;
7587;SDS011;3835;48.850;8.938;2022-08-01T00:57:58;11.60;;;11.10;;
7587;SDS011;3835;48.850;8.938;2022-08-01T01:00:25;12.87;;;12.37;;
7587;SDS011;3835;48.850;8.938;2022-08-01T01:02:52;13.63;;;13.10;;
7587;SDS011;3835;48.850;8.938;2022-08-01T01:05:19;14.13;;;13.63;;
7587;SDS011;3835;48.850;8.938;2022-08-01T01:07:48;12.80;;;12.30;;
7587;SDS011;3835;48.850;8.938;2022-08-01T01:10:21;14.40;;;13.80;;
7587;SDS011;3835;48.850;8.938;2022-08-01T01:12:54;13.30;;;12.80;;
7587;SDS011;3835;48.850;8.938;2022-08-01T01:15:26;12.63;;;12.13;;
7587;SDS011;3835;48.850;8.938;2022-08-01T01:18:02;11.73;;;11.23;;
7587;SDS011;3835;48.850;8.938;2022-08-01T01:20:33;13.47;;;12.97;;
7587;SDS011;3835;48.850;8.938;2022-08-01T01:23:12;12.23;;;11.73;;
7587;SDS011;3835;48.850;8.938;2022-08-01T01:26:10;13.20;;;12.70;;
7587;SDS011;3835;48.850;8.938;2022-08-01T01:29:03;15.90;;;15.17;;
7587;SDS011;3835;48.850;8.938;2022-08-01T01:31:36;16.53;;;15.93;;
7587;SDS011;3835;48.850;8.938;2022-08-01T01:34:07;16.03;;;15.33;;
7587;SDS011;3835;48.850;8.938;2022-08-01T01:36:37;13.63;;;12.93;;
7587;SDS011;3835;48.850;8.938;2022-08-01T01:39:05;12.07;;;11.50;;
7587;SDS011;3835;48.850;8.938;2022-08-01T01:41:32;12.53;;;12.00;;
7587;SDS011;3835;48.850;8.938;2022-08-01T01:44:03;13.47;;;12.87;;
7587;SDS011;3835;48.850;8.938;2022-08-01T01:46:31;12.23;;;11.73;;
7587;SDS011;3835;48.850;8.938;2022-08-01T01:48:58;16.63;;;15.93;;
7587;SDS011;3835;48.850;8.938;2022-08-01T01:51:27;15.37;;;14.77;;
7587;SDS011;3835;48.850;8.938;2022-08-01T01:53:54;14.67;;;14.00;;
7587;SDS011;3835;48.850;8.938;2022-08-01T01:56:22;19.70;;;18.87;;
7587;SDS011;3835;48.850;8.938;2022-08-01T01:58:50;13.57;;;13.00;;
7587;SDS011;3835;48.850;8.938;2022-08-01T02:01:20;14.83;;;14.23;;
7587;SDS011;3835;48.850;8.938;2022-08-01T02:03:48;16.60;;;15.87;;
7587;SDS011;3835;48.850;8.938;2022-08-01T02:06:16;14.67;;;14.07;;
7587;SDS011;3835;48.850;8.938;2022-08-01T02:08:44;14.30;;;13.70;;
7587;SDS011;3835;48.850;8.938;2022-08-01T02:11:12;13.27;;;12.77;;
7587;SDS011;3835;48.850;8.938;2022-08-01T02:13:46;12.93;;;12.43;;
7587;SDS011;3835;48.850;8.938;2022-08-01T02:16:31;14.50;;;13.93;;
7587;SDS011;3835;48.850;8.938;2022-08-01T02:19:00;13.80;;;13.20;;
7587;SDS011;3835;48.850;8.938;2022-08-01T02:21:29;17.03;;;16.37;;
7587;SDS011;3835;48.850;8.938;2022-08-01T02:24:00;15.87;;;15.27;;
7587;SDS011;3835;48.850;8.938;2022-08-01T02:26:34;14.27;;;13.77;;
7587;SDS011;3835;48.850;8.938;2022-08-01T02:29:05;14.10;;;13.53;;
7587;SDS011;3835;48.850;8.938;2022-08-01T02:31:37;13.53;;;13.03;;
7587;SDS011;3835;48.850;8.938;2022-08-01T02:34:06;12.40;;;11.90;;
7587;SDS011;3835;48.850;8.938;2022-08-01T02:36:36;16.37;;;15.70;;
7587;SDS011;3835;48.850;8.938;2022-08-01T02:39:06;16.23;;;15.40;;
7587;SDS011;3835;48.850;8.938;2022-08-01T02:41:36;12.27;;;11.80;;
7587;SDS011;3835;48.850;8.938;2022-08-01T02:44:07;13.60;;;13.00;;
7587;SDS011;3835;48.850;8.938;2022-08-01T02:46:38;13.33;;;12.83;;
7587;SDS011;3835;48.850;8.938;2022-08-01T02:49:10;13.10;;;12.60;;
7587;SDS011;3835;48.850;8.938;2022-08-01T02:51:39;14.37;;;13.83;;
7587;SDS011;3835;48.850;8.938;2022-08-01T02:54:08;12.63;;;12.13;;
7587;SDS011;3835;48.850;8.938;2022-08-01T02:56:37;12.80;;;12.30;;
7587;SDS011;3835;48.850;8.938;2022-08-01T02:59:06;12.93;;;12.43;;
7587;SDS011;3835;48.850;8.938;2022-08-01T03:01:37;12.47;;;11.97;;
7587;SDS011;3835;48.850;8.938;2022-08-01T03:04:06;15.07;;;14.47;;
7587;SDS011;3835;48.850;8.938;2022-08-01T03:06:33;12.47;;;11.97;;
7587;SDS011;3835;48.850;8.938;2022-08-01T03:09:02;14.70;;;14.10;;
7587;SDS011;3835;48.850;8.938;2022-08-01T03:11:30;13.57;;;12.97;;
7587;SDS011;3835;48.850;8.938;2022-08-01T03:13:59;16.47;;;15.77;;
7587;SDS011;3835;48.850;8.938;2022-08-01T03:16:30;13.80;;;13.30;;
7587;SDS011;3835;48.850;8.938;2022-08-01T03:19:00;14.37;;;13.77;;
7587;SDS011;3835;48.850;8.938;2022-08-01T03:21:29;13.37;;;12.87;;
7587;SDS011;3835;48.850;8.938;2022-08-01T03:23:59;14.33;;;13.73;;
7587;SDS011;3835;48.850;8.938;2022-08-01T03:26:27;15.80;;;15.10;;
7587;SDS011;3835;48.850;8.938;2022-08-01T03:28:57;23.10;;;22.20;;
7587;SDS011;3835;48.850;8.938;2022-08-01T03:31:28;15.77;;;15.17;;
7587;SDS011;3835;48.850;8.938;2022-08-01T03:33:56;14.53;;;14.00;;
7587;SDS011;3835;48.850;8.938;2022-08-01T03:36:25;14.27;;;13.67;;
7587;SDS011;3835;48.850;8.938;2022-08-01T03:38:54;14.90;;;14.30;;
7587;SDS011;3835;48.850;8.938;2022-08-01T03:41:25;12.63;;;12.13;;
7587;SDS011;3835;48.850;8.938;2022-08-01T03:43:56;15.10;;;14.50;;
7587;SDS011;3835;48.850;8.938;2022-08-01T03:46:28;20.10;;;19.23;;
7587;SDS011;3835;48.850;8.938;2022-08-01T03:49:00;18.77;;;17.93;;
7587;SDS011;3835;48.850;8.938;2022-08-01T03:51:35;17.33;;;16.67;;
7587;SDS011;3835;48.850;8.938;2022-08-01T03:54:04;23.80;;;22.83;;
7587;SDS011;3835;48.850;8.938;2022-08-01T03:56:32;24.23;;;23.23;;
7587;SDS011;3835;48.850;8.938;2022-08-01T03:58:59;22.83;;;21.93;;
7587;SDS011;3835;48.850;8.938;2022-08-01T04:01:29;22.23;;;21.33;;
7587;SDS011;3835;48.850;8.938;2022-08-01T04:03:58;17.43;;;16.73;;
7587;SDS011;3835;48.850;8.938;2022-08-01T04:06:26;13.77;;;13.17;;
7587;SDS011;3835;48.850;8.938;2022-08-01T04:08:54;11.97;;;11.47;;
7587;SDS011;3835;48.850;8.938;2022-08-01T04:11:23;12.17;;;11.67;;
7587;SDS011;3835;48.850;8.938;2022-08-01T04:13:52;14.80;;;14.20;;
7587;SDS011;3835;48.850;8.938;2022-08-01T04:16:19;15.73;;;15.13;;
7587;SDS011;3835;48.850;8.938;2022-08-01T04:18:46;14.17;;;13.57;;
7587;SDS011;3835;48.850;8.938;2022-08-01T04:21:13;15.37;;;14.77;;
7587;SDS011;3835;48.850;8.938;2022-08-01T04:23:40;16.07;;;15.47;;
7587;SDS011;3835;48.850;8.938;2022-08-01T04:26:10;13.37;;;12.77;;
7587;SDS011;3835;48.850;8.938;2022-08-01T04:28:39;15.67;;;14.97;;
7587;SDS011;3835;48.850;8.938;2022-08-01T04:31:08;14.40;;;13.80;;
7587;SDS011;3835;48.850;8.938;2022-08-01T04:33:36;13.90;;;13.40;;
7587;SDS011;3835;48.850;8.938;2022-08-01T04:36:06;16.07;;;15.47;;
7587;SDS011;3835;48.850;8.938;2022-08-01T04:38:35;12.90;;;12.37;;
7587;SDS011;3835;48.850;8.938;2022-08-01T04:41:03;19.30;;;18.50;;
7587;SDS011;3835;48.850;8.938;2022-08-01T04:43:33;23.87;;;22.77;;
7587;SDS011;3835;48.850;8.938;2022-08-01T04:46:00;16.40;;;15.73;;
7587;SDS011;3835;48.850;8.938;2022-08-01T04:48:28;15.60;;;14.97;;
7587;SDS011;3835;48.850;8.938;2022-08-01T04:50:57;15.67;;;15.07;;
7587;SDS011;3835;48.850;8.938;2022-08-01T04:53:24;21.07;;;20.20;;
7587;SDS011;3835;48.850;8.938;2022-08-01T04:55:51;18.30;;;17.50;;
7587;SDS011;3835;48.850;8.938;2022-08-01T04:58:18;12.40;;;11.90;;
7587;SDS011;3835;48.850;8.938;2022-08-01T05:00:47;15.33;;;14.63;;
7587;SDS011;3835;48.850;8.938;2022-08-01T05:03:14;12.50;;;12.00;;
7587;SDS011;3835;48.850;8.938;2022-08-01T05:05:41;12.63;;;12.13;;
7587;SDS011;3835;48.850;8.938;2022-08-01T05:08:07;14.03;;;13.33;;
7587;SDS011;3835;48.850;8.938;2022-08-01T05:10:35;14.80;;;14.23;;
7587;SDS011;3835;48.850;8.938;2022-08-01T05:13:01;13.27;;;12.77;;
7587;SDS011;3835;48.850;8.938;2022-08-01T05:15:28;17.50;;;16.80;;
7587;SDS011;3835;48.850;8.938;2022-08-01T05:17:57;17.70;;;17.00;;
7587;SDS011;3835;48.850;8.938;2022-08-01T05:20:24;17.97;;;17.17;;
7587;SDS011;3835;48.850;8.938;2022-08-01T05:22:51;14.93;;;14.33;;
7587;SDS011;3835;48.850;8.938;2022-08-01T05:25:17;15.17;;;14.53;;
7587;SDS011;3835;48.850;8.938;2022-08-01T05:27:44;13.20;;;12.70;;
7587;SDS011;3835;48.850;8.938;2022-08-01T05:30:11;12.17;;;11.67;;
7587;SDS011;3835;48.850;8.938;2022-08-01T05:32:38;12.77;;;12.27;;
7587;SDS011;3835;48.850;8.938;2022-08-01T05:35:07;14.40;;;13.80;;
7587;SDS011;3835;48.850;8.938;2022-08-01T05:37:35;12.17;;;11.67;;
7587;SDS011;3835;48.850;8.938;2022-08-01T05:40:02;13.17;;;12.67;;
7587;SDS011;3835;48.850;8.938;2022-08-01T05:42:29;12.53;;;12.03;;
7587;SDS011;3835;48.850;8.938;2022-08-01T05:44:56;13.67;;;13.10;;
7587;SDS011;3835;48.850;8.938;2022-08-01T05:47:23;13.50;;;13.00;;
7587;SDS011;3835;48.850;8.938;2022-08-01T05:49:50;13.37;;;12.87;;
7587;SDS011;3835;48.850;8.938;2022-08-01T05:52:18;12.67;;;12.10;;
7587;SDS011;3835;48.850;8.938;2022-08-01T05:54:45;12.33;;;11.83;;
7587;SDS011;3835;48.850;8.938;2022-08-01T05:57:11;14.47;;;13.77;;
7587;SDS011;3835;48.850;8.938;2022-08-01T05:59:38;11.20;;;10.80;;
7587;SDS011;3835;48.850;8.938;2022-08-01T06:02:05;10.70;;;10.30;;
7587;SDS011;3835;48.850;8.938;2022-08-01T06:04:32;10.87;;;10.47;;
7587;SDS011;3835;48.850;8.938;2022-08-01T06:06:59;11.33;;;10.87;;
7587;SDS011;3835;48.850;8.938;2022-08-01T06:09:27;13.47;;;12.97;;
7587;SDS011;3835;48.850;8.938;2022-08-01T06:11:55;12.87;;;12.37;;
7587;SDS011;3835;48.850;8.938;2022-08-01T06:14:22;13.40;;;12.90;;
7587;SDS011;3835;48.850;8.938;2022-08-01T06:16:49;12.20;;;11.70;;
7587;SDS011;3835;48.850;8.938;2022-08-01T06:19:16;14.47;;;13.93;;
7587;SDS011;3835;48.850;8.938;2022-08-01T06:21:43;20.03;;;19.20;;
7587;SDS011;3835;48.850;8.938;2022-08-01T06:24:09;11.43;;;10.90;;
7587;SDS011;3835;48.850;8.938;2022-08-01T06:26:37;10.87;;;10.47;;
7587;SDS011;3835;48.850;8.938;2022-08-01T06:29:04;12.17;;;11.67;;
7587;SDS011;3835;48.850;8.938;2022-08-01T06:31:31;12.17;;;11.67;;
7587;SDS011;3835;48.850;8.938;2022-08-01T06:33:58;11.73;;;11.33;;
7587;SDS011;3835;48.850;8.938;2022-08-01T06:36:25;11.57;;;11.13;;
7587;SDS011;3835;48.850;8.938;2022-08-01T06:38:52;10.97;;;10.57;;
7587;SDS011;3835;48.850;8.938;2022-08-01T06:41:18;11.27;;;10.77;;
7587;SDS011;3835;48.850;8.938;2022-08-01T06:43:47;10.03;;;9.53;;
7587;SDS011;3835;48.850;8.938;2022-08-01T06:46:13;10.40;;;10.00;;
7587;SDS011;3835;48.850;8.938;2022-08-01T06:48:40;11.13;;;10.73;;
7587;SDS011;3835;48.850;8.938;2022-08-01T06:51:07;12.50;;;11.90;;
7587;SDS011;3835;48.850;8.938;2022-08-01T06:53:35;11.73;;;11.33;;
7587;SDS011;3835;48.850;8.938;2022-08-01T06:56:02;11.53;;;11.13;;
7587;SDS011;3835;48.850;8.938;2022-08-01T06:58:30;12.77;;;12.27;;
7587;SDS011;3835;48.850;8.938;2022-08-01T07:00:58;11.77;;;11.30;;
7587;SDS011;3835;48.850;8.938;2022-08-01T07:03:25;11.00;;;10.60;;
7587;SDS011;3835;48.850;8.938;2022-08-01T07:05:52;12.17;;;11.67;;
7587;SDS011;3835;48.850;8.938;2022-08-01T07:08:19;15.67;;;15.07;;
7587;SDS011;3835;48.850;8.938;2022-08-01T07:10:46;11.40;;;11.00;;
7587;SDS011;3835;48.850;8.938;2022-08-01T07:13:13;11.47;;;10.97;;
7587;SDS011;3835;48.850;8.938;2022-08-01T07:15:45;10.33;;;9.93;;
7587;SDS011;3835;48.850;8.938;2022-08-01T07:18:13;11.17;;;10.77;;
7587;SDS011;3835;48.850;8.938;2022-08-01T07:20:40;12.23;;;11.73;;
7587;SDS011;3835;48.850;8.938;2022-08-01T07:23:08;11.03;;;10.63;;
7587;SDS011;3835;48.850;8.938;2022-08-01T07:25:35;12.70;;;12.20;;
7587;SDS011;3835;48.850;8.938;2022-08-01T07:28:01;14.20;;;13.70;;
7587;SDS011;3835;48.850;8.938;2022-08-01T07:30:28;11.13;;;10.73;;
7587;SDS011;3835;48.850;8.938;2022-08-01T07:32:55;13.10;;;12.60;;
7587;SDS011;3835;48.850;8.938;2022-08-01T07:35:24;12.70;;;12.20;;
7587;SDS011;3835;48.850;8.938;2022-08-01T07:37:51;13.73;;;13.23;;
7587;SDS011;3835;48.850;8.938;2022-08-01T07:40:18;13.60;;;13.10;;
7587;SDS011;3835;48.850;8.938;2022-08-01T07:42:45;13.00;;;12.50;;
7587;SDS011;3835;48.850;8.938;2022-08-01T07:45:13;10.63;;;10.23;;
7587;SDS011;3835;48.850;8.938;2022-08-01T07:47:40;13.93;;;13.43;;
7587;SDS011;3835;48.850;8.938;2022-08-01T07:50:07;13.17;;;12.67;;
7587;SDS011;3835;48.850;8.938;2022-08-01T07:52:36;11.47;;;10.97;;
7587;SDS011;3835;48.850;8.938;2022-08-01T07:55:03;14.07;;;13.57;;
7587;SDS011;3835;48.850;8.938;2022-08-01T07:57:30;10.80;;;10.40;;
7587;SDS011;3835;48.850;8.938;2022-08-01T07:59:57;11.57;;;11.07;;
7587;SDS011;3835;48.850;8.938;2022-08-01T08:02:24;12.00;;;11.50;;
7587;SDS011;3835;48.850;8.938;2022-08-01T08:04:51;11.57;;;11.07;;
7587;SDS011;3835;48.850;8.938;2022-08-01T08:07:17;12.03;;;11.53;;
7587;SDS011;3835;48.850;8.938;2022-08-01T08:09:46;11.83;;;11.43;;
7587;SDS011;3835;48.850;8.938;2022-08-01T08:12:12;11.40;;;10.97;;
7587;SDS011;3835;48.850;8.938;2022-08-01T08:14:39;11.90;;;11.40;;
7587;SDS011;3835;48.850;8.938;2022-08-01T08:17:06;11.27;;;10.87;;
7587;SDS011;3835;48.850;8.938;2022-08-01T08:19:33;10.87;;;10.47;;
7587;SDS011;3835;48.850;8.938;2022-08-01T08:22:02;10.33;;;9.83;;
7587;SDS011;3835;48.850;8.938;2022-08-01T08:24:29;13.90;;;13.00;;
7587;SDS011;3835;48.850;8.938;2022-08-01T08:26:58;13.17;;;12.57;;
7587;SDS011;3835;48.850;8.938;2022-08-01T08:29:26;11.93;;;11.33;;
7587;SDS011;3835;48.850;8.938;2022-08-01T08:31:54;13.70;;;12.83;;
7587;SDS011;3835;48.850;8.938;2022-08-01T08:34:22;14.57;;;13.90;;
7587;SDS011;3835;48.850;8.938;2022-08-01T08:36:50;14.07;;;13.47;;
7587;SDS011;3835;48.850;8.938;2022-08-01T08:39:17;12.87;;;12.23;;
7587;SDS011;3835;48.850;8.938;2022-08-01T08:41:44;11.93;;;11.33;;
7587;SDS011;3835;48.850;8.938;2022-08-01T08:44:12;12.03;;;11.53;;
7587;SDS011;3835;48.850;8.938;2022-08-01T08:46:40;11.30;;;10.50;;
7587;SDS011;3835;48.850;8.938;2022-08-01T08:49:07;13.00;;;12.40;;
7587;SDS011;3835;48.850;8.938;2022-08-01T08:51:37;11.30;;;10.80;;
7587;SDS011;3835;48.850;8.938;2022-08-01T08:54:06;13.30;;;12.70;;
7587;SDS011;3835;48.850;8.938;2022-08-01T08:56:34;11.90;;;11.30;;
7587;SDS011;3835;48.850;8.938;2022-08-01T08:59:03;12.30;;;11.60;;
7587;SDS011;3835;48.850;8.938;2022-08-01T09:01:32;13.00;;;12.17;;
7587;SDS011;3835;48.850;8.938;2022-08-01T09:04:00;13.57;;;12.67;;
7587;SDS011;3835;48.850;8.938;2022-08-01T09:06:28;16.27;;;15.40;;
7587;SDS011;3835;48.850;8.938;2022-08-01T09:08:55;15.67;;;14.97;;
7587;SDS011;3835;48.850;8.938;2022-08-01T09:11:22;12.63;;;12.13;;
7587;SDS011;3835;48.850;8.938;2022-08-01T09:14:06;11.97;;;11.47;;
7587;SDS011;3835;48.850;8.938;2022-08-01T09:16:36;11.63;;;11.13;;
7587;SDS011;3835;48.850;8.938;2022-08-01T09:19:06;10.90;;;10.50;;
7587;SDS011;3835;48.850;8.938;2022-08-01T09:21:38;11.70;;;11.20;;
7587;SDS011;3835;48.850;8.938;2022-08-01T09:24:13;13.00;;;12.50;;
7587;SDS011;3835;48.850;8.938;2022-08-01T09:26:42;13.47;;;12.97;;
7587;SDS011;3835;48.850;8.938;2022-08-01T09:29:18;13.00;;;12.50;;
7587;SDS011;3835;48.850;8.938;2022-08-01T09:31:47;13.43;;;12.77;;
7587;SDS011;3835;48.850;8.938;2022-08-01T09:34:14;10.70;;;10.30;;
7587;SDS011;3835;48.850;8.938;2022-08-01T09:36:46;11.97;;;11.47;;
7587;SDS011;3835;48.850;8.938;2022-08-01T09:39:17;12.60;;;12.10;;
7587;SDS011;3835;48.850;8.938;2022-08-01T09:41:45;13.53;;;13.03;;
7587;SDS011;3835;48.850;8.938;2022-08-01T09:44:13;13.57;;;13.07;;
7587;SDS011;3835;48.850;8.938;2022-08-01T09:46:53;12.90;;;12.40;;
7587;SDS011;3835;48.850;8.938;2022-08-01T09:49:26;11.97;;;11.47;;
7587;SDS011;3835;48.850;8.938;2022-08-01T09:51:58;11.60;;;11.20;;
7587;SDS011;3835;48.850;8.938;2022-08-01T09:54:36;12.10;;;11.47;;
7587;SDS011;3835;48.850;8.938;2022-08-01T09:57:07;10.90;;;10.50;;
7587;SDS011;3835;48.850;8.938;2022-08-01T09:59:35;10.27;;;9.87;;
7587;SDS011;3835;48.850;8.938;2022-08-01T10:02:06;10.83;;;10.33;;
7587;SDS011;3835;48.850;8.938;2022-08-01T10:04:35;11.17;;;10.70;;
7587;SDS011;3835;48.850;8.938;2022-08-01T10:07:06;11.50;;;11.00;;
7587;SDS011;3835;48.850;8.938;2022-08-01T10:09:34;10.87;;;10.33;;
7587;SDS011;3835;48.850;8.938;2022-08-01T10:12:02;10.80;;;10.40;;
7587;SDS011;3835;48.850;8.938;2022-08-01T10:14:29;10.73;;;10.23;;
7587;SDS011;3835;48.850;8.938;2022-08-01T10:16:57;11.97;;;11.47;;
7587;SDS011;3835;48.850;8.938;2022-08-01T10:19:27;12.23;;;11.60;;
7587;SDS011;3835;48.850;8.938;2022-08-01T10:21:55;11.50;;;11.00;;
7587;SDS011;3835;48.850;8.938;2022-08-01T10:24:24;12.03;;;11.43;;
7587;SDS011;3835;48.850;8.938;2022-08-01T10:26:54;11.50;;;10.93;;
7587;SDS011;3835;48.850;8.938;2022-08-01T10:29:24;11.00;;;10.57;;
7587;SDS011;3835;48.850;8.938;2022-08-01T10:31:53;10.30;;;9.80;;
7587;SDS011;3835;48.850;8.938;2022-08-01T10:34:20;11.27;;;10.77;;
7587;SDS011;3835;48.850;8.938;2022-08-01T10:36:49;11.07;;;10.57;;
7587;SDS011;3835;48.850;8.938;2022-08-01T10:39:16;10.87;;;10.37;;
7587;SDS011;3835;48.850;8.938;2022-08-01T10:41:44;12.10;;;11.60;;
7587;SDS011;3835;48.850;8.938;2022-08-01T10:44:12;11.63;;;11.13;;
7587;SDS011;3835;48.850;8.938;2022-08-01T10:46:39;11.23;;;10.83;;
7587;SDS011;3835;48.850;8.938;2022-08-01T10:49:13;11.33;;;10.83;;
7587;SDS011;3835;48.850;8.938;2022-08-01T10:51:42;10.60;;;10.20;;
7587;SDS011;3835;48.850;8.938;2022-08-01T10:54:12;10.33;;;9.93;;
7587;SDS011;3835;48.850;8.938;2022-08-01T10:56:40;11.10;;;10.60;;
7587;SDS011;3835;48.850;8.938;2022-08-01T10:59:10;10.83;;;10.40;;
7587;SDS011;3835;48.850;8.938;2022-08-01T11:01:47;9.77;;;9.37;;
7587;SDS011;3835;48.850;8.938;2022-08-01T11:04:31;12.07;;;11.57;;
7587;SDS011;3835;48.850;8.938;2022-08-01T11:07:03;12.90;;;12.40;;
7587;SDS011;3835;48.850;8.938;2022-08-01T11:09:39;10.43;;;9.93;;
7587;SDS011;3835;48.850;8.938;2022-08-01T11:12:08;10.30;;;9.90;;
7587;SDS011;3835;48.850;8.938;2022-08-01T11:17:41;10.47;;;10.07;;
7587;SDS011;3835;48.850;8.938;2022-08-01T11:20:12;10.07;;;9.67;;
7587;SDS011;3835;48.850;8.938;2022-08-01T11:31:37;11.77;;;11.27;;
7587;SDS011;3835;48.850;8.938;2022-08-01T11:34:04;11.43;;;10.93;;
7587;SDS011;3835;48.850;8.938;2022-08-01T11:36:31;12.33;;;11.83;;
7587;SDS011;3835;48.850;8.938;2022-08-01T11:41:53;10.07;;;9.67;;
7587;SDS011;3835;48.850;8.938;2022-08-01T11:44:21;9.97;;;9.57;;
7587;SDS011;3835;48.850;8.938;2022-08-01T11:47:00;11.97;;;11.47;;
7587;SDS011;3835;48.850;8.938;2022-08-01T11:49:33;10.93;;;10.53;;
7587;SDS011;3835;48.850;8.938;2022-08-01T11:52:11;10.50;;;10.10;;
7587;SDS011;3835;48.850;8.938;2022-08-01T11:54:40;10.73;;;10.33;;
7587;SDS011;3835;48.850;8.938;2022-08-01T11:57:11;11.77;;;11.27;;
7587;SDS011;3835;48.850;8.938;2022-08-01T12:02:16;11.30;;;10.90;;
7587;SDS011;3835;48.850;8.938;2022-08-01T12:04:44;12.93;;;12.43;;
7587;SDS011;3835;48.850;8.938;2022-08-01T12:07:12;9.73;;;9.33;;
7587;SDS011;3835;48.850;8.938;2022-08-01T12:09:40;12.03;;;11.53;;
7587;SDS011;3835;48.850;8.938;2022-08-01T12:12:07;13.47;;;12.97;;
7587;SDS011;3835;48.850;8.938;2022-08-01T12:14:36;10.07;;;9.67;;
7587;SDS011;3835;48.850;8.938;2022-08-01T12:17:04;10.10;;;9.60;;
7587;SDS011;3835;48.850;8.938;2022-08-01T12:19:31;11.07;;;10.57;;
7587;SDS011;3835;48.850;8.938;2022-08-01T12:24:40;10.40;;;10.00;;
7587;SDS011;3835;48.850;8.938;2022-08-01T12:27:08;10.40;;;9.97;;
7587;SDS011;3835;48.850;8.938;2022-08-01T12:29:39;9.63;;;9.23;;
7587;SDS011;3835;48.850;8.938;2022-08-01T12:32:21;10.97;;;10.37;;
7587;SDS011;3835;48.850;8.938;2022-08-01T12:34:50;9.83;;;9.43;;
7587;SDS011;3835;48.850;8.938;2022-08-01T12:37:17;10.10;;;9.70;;
7587;SDS011;3835;48.850;8.938;2022-08-01T12:39:44;10.63;;;10.23;;
7587;SDS011;3835;48.850;8.938;2022-08-01T12:42:11;11.53;;;11.03;;
7587;SDS011;3835;48.850;8.938;2022-08-01T12:44:41;10.60;;;10.17;;
7587;SDS011;3835;48.850;8.938;2022-08-01T12:47:10;11.60;;;11.17;;
7587;SDS011;3835;48.850;8.938;2022-08-01T12:49:40;12.03;;;11.43;;
7587;SDS011;3835;48.850;8.938;2022-08-01T12:52:09;9.60;;;9.20;;
7587;SDS011;3835;48.850;8.938;2022-08-01T12:57:25;12.07;;;11.57;;
7587;SDS011;3835;48.850;8.938;2022-08-01T12:59:55;27.87;;;26.77;;
7587;SDS011;3835;48.850;8.938;2022-08-01T13:02:35;13.27;;;12.77;;
7587;SDS011;3835;48.850;8.938;2022-08-01T13:05:02;10.83;;;10.33;;
7587;SDS011;3835;48.850;8.938;2022-08-01T13:07:40;11.03;;;10.43;;
7587;SDS011;3835;48.850;8.938;2022-08-01T13:10:24;12.07;;;11.57;;
7587;SDS011;3835;48.850;8.938;2022-08-01T13:12:53;13.13;;;12.63;;
7587;SDS011;3835;48.850;8.938;2022-08-01T13:15:26;10.73;;;10.33;;
7587;SDS011;3835;48.850;8.938;2022-08-01T13:17:57;9.80;;;9.40;;
7587;SDS011;3835;48.850;8.938;2022-08-01T13:20:25;10.00;;;9.60;;
7587;SDS011;3835;48.850;8.938;2022-08-01T13:23:10;10.10;;;9.70;;
7587;SDS011;3835;48.850;8.938;2022-08-01T13:25:51;9.90;;;9.50;;
7587;SDS011;3835;48.850;8.938;2022-08-01T13:28:20;9.87;;;9.47;;
7587;SDS011;3835;48.850;8.938;2022-08-01T13:30:57;9.93;;;9.53;;
7587;SDS011;3835;48.850;8.938;2022-08-01T13:33:26;11.53;;;11.03;;
7587;SDS011;3835;48.850;8.938;2022-08-01T13:35:54;10.97;;;10.47;;
7587;SDS011;3835;48.850;8.938;2022-08-01T13:38:22;10.03;;;9.63;;
7587;SDS011;3835;48.850;8.938;2022-08-01T13:41:03;10.07;;;9.67;;
7587;SDS011;3835;48.850;8.938;2022-08-01T13:43:30;11.73;;;11.23;;
7587;SDS011;3835;48.850;8.938;2022-08-01T13:45:58;10.57;;;10.17;;
7587;SDS011;3835;48.850;8.938;2022-08-01T13:48:25;9.60;;;9.30;;
7587;SDS011;3835;48.850;8.938;2022-08-01T13:50:52;11.30;;;10.90;;
7587;SDS011;3835;48.850;8.938;2022-08-01T13:53:18;10.80;;;10.40;;
7587;SDS011;3835;48.850;8.938;2022-08-01T13:55:45;9.87;;;9.47;;
7587;SDS011;3835;48.850;8.938;2022-08-01T13:58:12;10.37;;;9.97;;
7587;SDS011;3835;48.850;8.938;2022-08-01T14:00:39;10.63;;;10.23;;
7587;SDS011;3835;48.850;8.938;2022-08-01T14:03:07;11.03;;;10.63;;
7587;SDS011;3835;48.850;8.938;2022-08-01T14:05:35;10.70;;;10.30;;
7587;SDS011;3835;48.850;8.938;2022-08-01T14:08:02;10.13;;;9.73;;
7587;SDS011;3835;48.850;8.938;2022-08-01T14:10:29;10.57;;;10.17;;
7587;SDS011;3835;48.850;8.938;2022-08-01T14:12:56;9.93;;;9.53;;
7587;SDS011;3835;48.850;8.938;2022-08-01T14:15:23;11.17;;;10.67;;
7587;SDS011;3835;48.850;8.938;2022-08-01T14:17:51;10.27;;;9.87;;
7587;SDS011;3835;48.850;8.938;2022-08-01T14:20:19;10.57;;;10.17;;
7587;SDS011;3835;48.850;8.938;2022-08-01T14:22:46;10.40;;;10.00;;
7587;SDS011;3835;48.850;8.938;2022-08-01T14:25:13;10.93;;;10.50;;
7587;SDS011;3835;48.850;8.938;2022-08-01T14:27:40;9.87;;;9.47;;
7587;SDS011;3835;48.850;8.938;2022-08-01T14:30:07;9.87;;;9.47;;
7587;SDS011;3835;48.850;8.938;2022-08-01T14:32:36;10.73;;;10.33;;
7587;SDS011;3835;48.850;8.938;2022-08-01T14:35:03;10.13;;;9.67;;
7587;SDS011;3835;48.850;8.938;2022-08-01T14:37:32;9.50;;;9.10;;
7587;SDS011;3835;48.850;8.938;2022-08-01T14:40:00;10.90;;;10.50;;
7587;SDS011;3835;48.850;8.938;2022-08-01T14:42:29;9.83;;;9.43;;
7587;SDS011;3835;48.850;8.938;2022-08-01T14:44:56;10.23;;;9.83;;
7587;SDS011;3835;48.850;8.938;2022-08-01T14:47:23;10.03;;;9.63;;
7587;SDS011;3835;48.850;8.938;2022-08-01T14:49:50;9.70;;;9.30;;
7587;SDS011;3835;48.850;8.938;2022-08-01T14:52:17;9.87;;;9.37;;
7587;SDS011;3835;48.850;8.938;2022-08-01T14:54:45;10.20;;;9.80;;
7587;SDS011;3835;48.850;8.938;2022-08-01T14:57:12;10.13;;;9.73;;
7587;SDS011;3835;48.850;8.938;2022-08-01T14:59:43;10.47;;;10.07;;
7587;SDS011;3835;48.850;8.938;2022-08-01T15:02:09;9.87;;;9.47;;
7587;SDS011;3835;48.850;8.938;2022-08-01T15:04:38;9.80;;;9.40;;
7587;SDS011;3835;48.850;8.938;2022-08-01T15:07:05;10.73;;;10.33;;
7587;SDS011;3835;48.850;8.938;2022-08-01T15:09:32;11.27;;;10.77;;
7587;SDS011;3835;48.850;8.938;2022-08-01T15:12:00;10.37;;;9.97;;
7587;SDS011;3835;48.850;8.938;2022-08-01T15:14:26;10.10;;;9.67;;
7587;SDS011;3835;48.850;8.938;2022-08-01T15:17:11;11.67;;;11.23;;
7587;SDS011;3835;48.850;8.938;2022-08-01T15:19:37;10.60;;;10.20;;
7587;SDS011;3835;48.850;8.938;2022-08-01T15:22:04;10.07;;;9.63;;
7587;SDS011;3835;48.850;8.938;2022-08-01T15:24:31;10.10;;;9.70;;